Georgitsi — V7VY5 — position and weather

sailwx.info

Track history (hours):
 
Tides and Currents Weather Stations Pressure Air Temp Water Temp Dewpoint Dewpoint Depression Visibility Wind Speed Wind Dir Waves Ship Positions

Georgitsi

Last reported at 2017-Nov-17 16:36 UTC. Time now 2017-Nov-17 19:46 UTC.
Position N 66°46' E 011°38'.

Length 229 m; draft 7.3 m.

Type: Cargo ship. MMSI: 538004242.

Date/timePositionNaut miles runAvg speedWind from/ knotsBaromVisibWave heightAir tempDewpointWater temp
2017-Nov-17 16:36N 66°46' E 011°38'213.7
2017-Nov-17 16:25N 66°44' E 011°34'  
2017-Nov-15 02:15N 54°12' E 004°44'413.8
2017-Nov-15 01:59N 54°08' E 004°43'714.0
2017-Nov-15 01:29N 54°01' E 004°40'713.8
2017-Nov-15 01:00N 53°55' E 004°35'714.0
2017-Nov-15 00:30N 53°50' E 004°27'713.8
2017-Nov-14 23:59N 53°45' E 004°18'713.8
2017-Nov-14 23:29N 53°41' E 004°09'713.7
2017-Nov-14 23:00N 53°37' E 004°00'1213.7
2017-Nov-14 22:07N 53°29' E 003°44'313.9
2017-Nov-14 21:53N 53°26' E 003°42'513.7
2017-Nov-14 21:30N 53°22' E 003°39'713.6
2017-Nov-14 21:00N 53°16' E 003°34'713.4
2017-Nov-14 20:29N 53°09' E 003°30'613.2
2017-Nov-14 19:59N 53°03' E 003°25'713.0
2017-Nov-14 19:28N 52°57' E 003°21'712.9
2017-Nov-14 18:57N 52°51' E 003°17'612.9
2017-Nov-14 18:30N 52°46' E 003°12'612.9
2017-Nov-14 18:00N 52°40' E 003°07'712.8
2017-Nov-14 17:29N 52°34' E 003°02'2412.9
2017-Nov-14 15:36N 52°10' E 002°52'113.4
2017-Nov-14 15:30N 52°09' E 002°53'612.6
2017-Nov-14 15:00N 52°04' E 002°58'912.6
2017-Nov-14 14:19N 51°56' E 003°05'412.3
2017-Nov-14 13:59N 51°52' E 003°07'511.0
2017-Nov-14 13:30N 51°48' E 003°11'611.8
2017-Nov-14 13:00N 51°42' E 003°14'4 8.2
2017-Nov-14 12:30N 51°40' E 003°20'714.6
2017-Nov-14 12:00N 51°33' E 003°25'714.7
2017-Nov-14 11:30N 51°27' E 003°32'3 6.7
2017-Nov-14 11:00N 51°26' E 003°37'4 8.8
2017-Nov-14 10:31N 51°24' E 003°43'510.4
2017-Nov-14 10:00N 51°20' E 003°49'1 1.3
2017-Nov-14 09:30N 51°20' E 003°49'0 0.6
2017-Nov-14 09:01N 51°19' E 003°49'3 5.3
2017-Nov-14 08:31N 51°17' E 003°50'3 6.8
2017-Nov-14 08:00N 51°14' E 003°48'3 6.9
2017-Nov-14 07:31N 51°10' E 003°48'0 0.5
2017-Nov-14 07:00N 51°10' E 003°48'0 0.0
2017-Nov-14 06:30N 51°10' E 003°48'0 0.0
2017-Nov-14 06:00N 51°10' E 003°48'0 0.0
2017-Nov-14 05:30N 51°10' E 003°48'0 0.0
2017-Nov-14 05:00N 51°10' E 003°48'0 0.0
2017-Nov-14 04:30N 51°10' E 003°48'0 0.0
2017-Nov-14 04:00N 51°10' E 003°48'0 0.0
2017-Nov-14 03:30N 51°10' E 003°48'0 0.0
2017-Nov-14 03:00N 51°10' E 003°48'0 0.0
2017-Nov-14 02:30N 51°10' E 003°48'0 0.0
2017-Nov-14 02:00N 51°10' E 003°48'0 0.0
2017-Nov-14 01:30N 51°10' E 003°48'0 0.0
2017-Nov-14 01:00N 51°10' E 003°48'0 0.0
2017-Nov-14 00:30N 51°10' E 003°48'0 0.0
2017-Nov-14 00:00N 51°10' E 003°48'0 0.0
2017-Nov-13 23:30N 51°10' E 003°48'0 0.0
2017-Nov-13 23:00N 51°10' E 003°48'0 0.0
2017-Nov-13 22:30N 51°10' E 003°48'0 0.0
2017-Nov-13 22:00N 51°10' E 003°48'0 0.0
2017-Nov-13 01:59N 51°10' E 003°48'0 0.0
2017-Nov-13 01:29N 51°10' E 003°48'0 0.0
2017-Nov-13 00:59N 51°10' E 003°48'0 0.0
2017-Nov-13 00:28N 51°10' E 003°48'0 0.0
2017-Nov-12 23:58N 51°10' E 003°48'0 0.0
2017-Nov-12 23:29N 51°10' E 003°48'0 0.0
2017-Nov-12 22:59N 51°10' E 003°48'0 0.0
2017-Nov-12 22:29N 51°10' E 003°48'0 0.0
2017-Nov-12 21:59N 51°10' E 003°48'0 0.0
2017-Nov-12 21:28N 51°10' E 003°48'0 0.0
2017-Nov-12 20:59N 51°10' E 003°48'0 0.0
2017-Nov-12 20:29N 51°10' E 003°48'0 0.0
2017-Nov-12 19:59N 51°10' E 003°48'0 0.0
2017-Nov-12 19:29N 51°10' E 003°48'0 0.0
2017-Nov-12 18:58N 51°10' E 003°48'0 0.0
2017-Nov-12 18:28N 51°10' E 003°48'0 0.0
2017-Nov-12 17:59N 51°10' E 003°48'0 0.0
2017-Nov-12 17:29N 51°10' E 003°48'0 0.0
2017-Nov-12 16:59N 51°10' E 003°48'0 0.0
2017-Nov-12 16:29N 51°10' E 003°48'0 0.0
2017-Nov-12 15:58N 51°10' E 003°48'0 0.0
2017-Nov-12 15:28N 51°10' E 003°48'0 0.0
2017-Nov-12 14:59N 51°10' E 003°48'0 0.0
2017-Nov-12 14:29N 51°10' E 003°48'0 0.0
2017-Nov-12 13:59N 51°10' E 003°48'0 0.0
2017-Nov-12 13:28N 51°10' E 003°48'0 0.0
2017-Nov-12 12:59N 51°10' E 003°48'0 0.0
2017-Nov-12 12:28N 51°10' E 003°48'0 0.0
2017-Nov-12 12:01N 51°10' E 003°48'0 0.0
2017-Nov-12 11:29N 51°10' E 003°48'0 0.0
2017-Nov-12 10:59N 51°10' E 003°48'0 0.0
2017-Nov-12 10:29N 51°10' E 003°48'0 0.0
2017-Nov-12 09:59N 51°10' E 003°48'0 0.0
2017-Nov-12 09:29N 51°10' E 003°48'0 0.0
2017-Nov-12 08:59N 51°10' E 003°48'0 0.0
2017-Nov-12 08:28N 51°10' E 003°48'0 0.0
2017-Nov-12 07:58N 51°10' E 003°48'0 0.0
2017-Nov-12 07:28N 51°10' E 003°48'0 0.0
2017-Nov-12 06:58N 51°10' E 003°48'0 0.0
2017-Nov-12 06:28N 51°10' E 003°48'0 0.0
2017-Nov-12 05:58N 51°10' E 003°48'0 0.0
2017-Nov-12 05:28N 51°10' E 003°48'0 0.0
2017-Nov-12 04:58N 51°10' E 003°48'0 0.0
2017-Nov-12 04:28N 51°10' E 003°48'0 0.0
2017-Nov-12 03:58N 51°10' E 003°48'0 0.0
2017-Nov-12 03:28N 51°10' E 003°48'0 0.0
2017-Nov-12 02:58N 51°10' E 003°48'0 0.0
2017-Nov-12 02:28N 51°10' E 003°48'0 0.0
2017-Nov-12 01:58N 51°10' E 003°48'0 0.0
2017-Nov-12 01:28N 51°10' E 003°48'0 0.0
2017-Nov-12 00:58N 51°10' E 003°48'0 0.0
2017-Nov-12 00:25N 51°10' E 003°48'0 0.0
2017-Nov-11 23:59N 51°10' E 003°48'0 0.0
2017-Nov-11 23:28N 51°10' E 003°48'0 0.1
2017-Nov-11 23:01N 51°11' E 003°48'1 2.3
2017-Nov-11 22:30N 51°12' E 003°48'2 4.9
2017-Nov-11 22:01N 51°14' E 003°49'3 5.0
2017-Nov-11 21:31N 51°16' E 003°50'3 5.3
2017-Nov-11 21:01N 51°19' E 003°50'1 1.8
2017-Nov-11 20:30N 51°20' E 003°49'0 0.3
2017-Nov-11 20:00N 51°20' E 003°49'0 1.0
2017-Nov-11 19:31N 51°20' E 003°49'1 2.3
2017-Nov-11 19:00N 51°21' E 003°50'1 2.1
2017-Nov-11 18:31N 51°21' E 003°52'0 0.1
2017-Nov-11 17:56N 51°21' E 003°52'0 0.2
2017-Nov-11 17:29N 51°21' E 003°52'0 0.0
2017-Nov-11 16:59N 51°21' E 003°52'0 0.0
2017-Nov-11 16:26N 51°21' E 003°52'0 0.0
2017-Nov-11 15:59N 51°21' E 003°52'0 0.0
2017-Nov-11 15:29N 51°21' E 003°52'0 0.0
2017-Nov-11 14:59N 51°21' E 003°52'0 0.2
2017-Nov-11 14:29N 51°21' E 003°52'0 0.2
2017-Nov-11 13:56N 51°21' E 003°52'0 0.2
2017-Nov-11 13:29N 51°21' E 003°52'0 0.0
2017-Nov-11 12:56N 51°21' E 003°52'0 0.2
2017-Nov-11 12:26N 51°21' E 003°52'0 0.0
2017-Nov-11 11:59N 51°21' E 003°52'0 0.1
2017-Nov-11 11:29N 51°21' E 003°52'0 0.0
2017-Nov-11 10:59N 51°21' E 003°52'0 0.1
2017-Nov-11 10:29N 51°21' E 003°52'0 0.1
2017-Nov-11 09:59N 51°21' E 003°52'0 0.0
2017-Nov-11 09:29N 51°21' E 003°52'0 0.1
2017-Nov-11 08:59N 51°21' E 003°52'0 0.2
2017-Nov-11 08:29N 51°21' E 003°52'0 0.3
2017-Nov-11 07:59N 51°21' E 003°52'0 0.1
2017-Nov-11 07:29N 51°21' E 003°52'0 0.2
2017-Nov-11 06:59N 51°21' E 003°52'0 0.0
2017-Nov-11 06:30N 51°21' E 003°52'0 0.0
2017-Nov-11 06:00N 51°21' E 003°52'0 0.0
2017-Nov-11 05:30N 51°21' E 003°52'0 0.0
2017-Nov-11 04:59N 51°21' E 003°52'0 0.0
2017-Nov-11 04:30N 51°21' E 003°52'0 0.0
2017-Nov-11 04:00N 51°21' E 003°52'0 0.1
2017-Nov-11 03:30N 51°21' E 003°52'0 0.0
2017-Nov-11 03:00N 51°21' E 003°52'0 0.1
2017-Nov-11 02:30N 51°21' E 003°52'0 0.1
2017-Nov-11 02:00N 51°21' E 003°52'0 0.3
2017-Nov-11 01:30N 51°21' E 003°52'0 0.2
2017-Nov-11 00:59N 51°21' E 003°52'0 0.2
2017-Nov-11 00:30N 51°21' E 003°52'0 0.0
2017-Nov-11 00:00N 51°21' E 003°52'0 0.1
2017-Nov-10 23:30N 51°21' E 003°52'0 0.1
2017-Nov-10 23:00N 51°21' E 003°52'0 0.1
2017-Nov-10 22:30N 51°21' E 003°52'0 0.3
2017-Nov-10 22:00N 51°21' E 003°52'0 0.0
2017-Nov-10 21:30N 51°21' E 003°52'0 0.0
2017-Nov-10 21:00N 51°21' E 003°52'0 0.1
2017-Nov-10 20:30N 51°21' E 003°52'0 0.3
2017-Nov-10 20:00N 51°21' E 003°52'0 0.3
2017-Nov-10 19:30N 51°21' E 003°52'2 3.6
2017-Nov-10 19:00N 51°21' E 003°49'3 6.3
2017-Nov-10 18:30N 51°22' E 003°44'4 8.9
2017-Nov-10 18:00N 51°26' E 003°41'5 9.9
2017-Nov-10 17:30N 51°25' E 003°33'510.7
2017-Nov-10 17:00N 51°25' E 003°25'611.4
2017-Nov-10 16:30N 51°25' E 003°15'611.6
2017-Nov-10 16:00N 51°24' E 003°06'611.3
2017-Nov-10 15:30N 51°25' E 002°57'510.6
2017-Nov-10 15:00N 51°25' E 002°49'510.0
2017-Nov-10 14:30N 51°22' E 002°42'4 7.7
2017-Nov-10 14:00N 51°22' E 002°36'2 4.7
2017-Nov-10 13:30N 51°24' E 002°34'0 0.1
2017-Nov-10 12:59N 51°24' E 002°34'0 0.0
2017-Nov-10 11:41N 51°24' E 002°34'0 0.1
2017-Nov-10 11:23N 51°24' E 002°34'0 0.2
2017-Nov-10 10:59N 51°24' E 002°34'0 0.2
2017-Nov-10 09:41N 51°24' E 002°34'0 0.1
2017-Nov-10 09:14N 51°24' E 002°34'0 0.2
2017-Nov-10 08:59N 51°24' E 002°34'0 0.1
2017-Nov-10 08:26N 51°24' E 002°34'0 0.1
2017-Nov-10 07:59N 51°24' E 002°34'0 0.0
2017-Nov-10 07:11N 51°24' E 002°34'0 0.0
2017-Nov-10 06:53N 51°24' E 002°34'0 0.0
2017-Nov-10 06:26N 51°24' E 002°34'0 0.0
2017-Nov-10 05:53N 51°24' E 002°34'0 0.0
2017-Nov-10 05:14N 51°24' E 002°34'0 0.0
2017-Nov-10 04:47N 51°24' E 002°34'0 0.0
2017-Nov-10 04:29N 51°24' E 002°34'0 0.1
2017-Nov-10 03:56N 51°24' E 002°34'0 0.1
2017-Nov-10 03:29N 51°24' E 002°34'0 0.2
2017-Nov-10 02:59N 51°24' E 002°34'0 0.3
2017-Nov-10 02:29N 51°24' E 002°34'0 0.1
2017-Nov-10 01:56N 51°24' E 002°34'0 0.0
2017-Nov-10 01:23N 51°24' E 002°34'0 0.0
2017-Nov-10 00:59N 51°24' E 002°34'0 0.0
2017-Nov-10 00:23N 51°24' E 002°34'0 0.0
2017-Nov-09 23:59N 51°24' E 002°34'0 0.0
2017-Nov-09 23:26N 51°24' E 002°34'0 0.0
2017-Nov-09 22:59N 51°24' E 002°34'0 0.0
2017-Nov-09 22:29N 51°24' E 002°34'0 0.0
2017-Nov-09 21:59N 51°24' E 002°34'0 0.1
2017-Nov-09 21:29N 51°24' E 002°34'0 0.4
2017-Nov-09 20:56N 51°24' E 002°34'0 0.3
2017-Nov-09 20:29N 51°24' E 002°34'0 0.0
2017-Nov-09 19:59N 51°24' E 002°34'0 0.0
2017-Nov-09 19:29N 51°24' E 002°34'0 0.0
2017-Nov-09 18:59N 51°24' E 002°34'0 0.0
2017-Nov-09 18:29N 51°24' E 002°34'0 0.0
2017-Nov-09 17:50N 51°24' E 002°34'0 0.0
2017-Nov-09 17:29N 51°24' E 002°34'0 0.0
2017-Nov-09 16:59N 51°24' E 002°34'0 0.0
2017-Nov-09 16:29N 51°24' E 002°34'0 0.0
2017-Nov-09 15:59N 51°24' E 002°34'0 0.0
2017-Nov-09 15:14N 51°24' E 002°34'0 0.1
2017-Nov-09 14:59N 51°24' E 002°34'0 0.2
2017-Nov-09 13:59N 51°24' E 002°34'0 0.1
2017-Nov-09 13:05N 51°24' E 002°34'0 0.1
2017-Nov-09 12:59N 51°24' E 002°34'0 0.0
2017-Nov-09 12:23N 51°24' E 002°34'0 0.0
2017-Nov-09 11:59N 51°24' E 002°34'0 0.0
2017-Nov-09 11:29N 51°24' E 002°34'0 0.0
2017-Nov-09 10:59N 51°24' E 002°34'0 0.0
2017-Nov-09 10:23N 51°24' E 002°34'0 0.0
2017-Nov-09 09:59N 51°24' E 002°34'0 0.1
2017-Nov-09 09:26N 51°24' E 002°34'0 0.3
2017-Nov-09 08:56N 51°24' E 002°34'0 0.3
2017-Nov-09 08:26N 51°24' E 002°34'0 0.1
2017-Nov-09 07:59N 51°24' E 002°34'0 0.0
2017-Nov-09 07:26N 51°24' E 002°34'0 0.0
2017-Nov-09 06:56N 51°24' E 002°34'0 0.0
2017-Nov-09 06:26N 51°24' E 002°34'0 0.0
2017-Nov-09 05:59N 51°24' E 002°34'0 0.0
2017-Nov-09 05:29N 51°24' E 002°34'0 0.0
2017-Nov-09 04:59N 51°24' E 002°34'0 0.0
2017-Nov-09 04:29N 51°24' E 002°34'0 0.0
2017-Nov-09 03:59N 51°24' E 002°34'0 0.0
2017-Nov-09 03:29N 51°24' E 002°34'0 0.0
2017-Nov-09 02:59N 51°24' E 002°34'0 0.2
2017-Nov-09 02:26N 51°24' E 002°34'0 0.2
2017-Nov-09 01:59N 51°24' E 002°34'0 0.2
2017-Nov-09 01:08N 51°24' E 002°34'0 0.0
2017-Nov-09 00:44N 51°24' E 002°34'0 0.0
2017-Nov-09 00:29N 51°24' E 002°34'0 0.0
2017-Nov-08 23:59N 51°24' E 002°34'0 0.0
2017-Nov-08 23:23N 51°24' E 002°34'0 0.0
2017-Nov-08 22:59N 51°24' E 002°34'0 0.0
2017-Nov-08 20:50N 51°24' E 002°34'0 0.0
2017-Nov-08 19:38N 51°24' E 002°34'0 0.1
2017-Nov-08 19:29N 51°24' E 002°34'0 0.2
2017-Nov-08 18:59N 51°24' E 002°34'0 0.2
2017-Nov-08 18:29N 51°24' E 002°34'0 0.0
2017-Nov-08 17:56N 51°24' E 002°34'0 0.0
2017-Nov-08 17:23N 51°24' E 002°34'0 0.0
2017-Nov-08 16:59N 51°24' E 002°34'0 0.0
2017-Nov-08 16:29N 51°24' E 002°34'0 0.1
2017-Nov-08 15:59N 51°24' E 002°34'0 0.0
2017-Nov-08 15:29N 51°24' E 002°34'0 0.0
2017-Nov-08 14:59N 51°24' E 002°34'0 0.1
2017-Nov-08 14:02N 51°24' E 002°34'0 0.2
2017-Nov-08 13:59N 51°24' E 002°34'0 0.2
2017-Nov-08 13:11N 51°24' E 002°34'0 0.1
2017-Nov-08 12:41N 51°24' E 002°34'0 0.1
2017-Nov-08 12:29N 51°24' E 002°34'0 0.1
2017-Nov-08 11:59N 51°24' E 002°34'0 0.0
2017-Nov-08 11:26N 51°24' E 002°34'0 0.0
2017-Nov-08 09:17N 51°24' E 002°34'0 0.1
2017-Nov-08 07:02N 51°24' E 002°34'0 0.2
2017-Nov-08 06:59N 51°24' E 002°34'0 0.1
2017-Nov-08 06:29N 51°24' E 002°34'0 0.1
2017-Nov-08 05:59N 51°24' E 002°34'0 0.0
2017-Nov-08 05:29N 51°24' E 002°34'0 0.0
2017-Nov-08 04:59N 51°24' E 002°34'0 0.0
2017-Nov-08 04:29N 51°24' E 002°34'0 0.0
2017-Nov-08 03:56N 51°24' E 002°34'0 0.0
2017-Nov-08 03:29N 51°24' E 002°34'0 0.0
2017-Nov-08 02:47N 51°24' E 002°34'0 0.0
2017-Nov-08 02:02N 51°24' E 002°34'0 0.0
2017-Nov-08 01:59N 51°24' E 002°34'0 0.0
2017-Nov-08 01:26N 51°24' E 002°34'0 0.3
2017-Nov-08 00:59N 51°24' E 002°34'0 0.1
2017-Nov-07 23:26N 51°24' E 002°34'0 0.0
2017-Nov-07 22:50N 51°24' E 002°34'0 0.0
2017-Nov-07 22:23N 51°24' E 002°34'0 0.0
2017-Nov-07 21:56N 51°24' E 002°34'0 0.0
2017-Nov-07 21:26N 51°24' E 002°34'0 0.0
2017-Nov-07 20:38N 51°24' E 002°34'0 0.1
2017-Nov-07 20:20N 51°24' E 002°34'0 0.2
2017-Nov-07 19:32N 51°24' E 002°34'0 0.2
2017-Nov-07 19:29N 51°24' E 002°34'0 0.2
2017-Nov-07 18:59N 51°24' E 002°34'0 0.1
2017-Nov-07 18:29N 51°24' E 002°34'0 0.1
2017-Nov-07 17:59N 51°24' E 002°34'0 0.1
2017-Nov-07 17:26N 51°24' E 002°34'0 0.1
2017-Nov-07 16:59N 51°24' E 002°34'  
Track history (hours):
 
Tides and Currents Weather Stations Pressure Air Temp Water Temp Dewpoint Dewpoint Depression Visibility Wind Speed Wind Dir Waves Ship Positions

Georgitsi

Last reported at 2017-Nov-17 16:36 UTC. Time now 2017-Nov-17 19:46 UTC.
Position N 66°46' E 011°38'.

Length 229 m; draft 7.3 m.

Type: Cargo ship. MMSI: 538004242.

Date/timePositionNaut miles runAvg speedWind from/ knotsBaromVisibWave heightAir tempDewpointWater temp
2017-Nov-17 16:36N 66°46' E 011°38'213.7
2017-Nov-17 16:25N 66°44' E 011°34'  
2017-Nov-15 02:15N 54°12' E 004°44'413.8
2017-Nov-15 01:59N 54°08' E 004°43'714.0
2017-Nov-15 01:29N 54°01' E 004°40'713.8
2017-Nov-15 01:00N 53°55' E 004°35'714.0
2017-Nov-15 00:30N 53°50' E 004°27'713.8
2017-Nov-14 23:59N 53°45' E 004°18'713.8
2017-Nov-14 23:29N 53°41' E 004°09'713.7
2017-Nov-14 23:00N 53°37' E 004°00'1213.7
2017-Nov-14 22:07N 53°29' E 003°44'313.9
2017-Nov-14 21:53N 53°26' E 003°42'513.7
2017-Nov-14 21:30N 53°22' E 003°39'713.6
2017-Nov-14 21:00N 53°16' E 003°34'713.4
2017-Nov-14 20:29N 53°09' E 003°30'613.2
2017-Nov-14 19:59N 53°03' E 003°25'713.0
2017-Nov-14 19:28N 52°57' E 003°21'712.9
2017-Nov-14 18:57N 52°51' E 003°17'612.9
2017-Nov-14 18:30N 52°46' E 003°12'612.9
2017-Nov-14 18:00N 52°40' E 003°07'712.8
2017-Nov-14 17:29N 52°34' E 003°02'2412.9
2017-Nov-14 15:36N 52°10' E 002°52'113.4
2017-Nov-14 15:30N 52°09' E 002°53'612.6
2017-Nov-14 15:00N 52°04' E 002°58'912.6
2017-Nov-14 14:19N 51°56' E 003°05'412.3
2017-Nov-14 13:59N 51°52' E 003°07'511.0
2017-Nov-14 13:30N 51°48' E 003°11'611.8
2017-Nov-14 13:00N 51°42' E 003°14'4 8.2
2017-Nov-14 12:30N 51°40' E 003°20'714.6
2017-Nov-14 12:00N 51°33' E 003°25'714.7
2017-Nov-14 11:30N 51°27' E 003°32'3 6.7
2017-Nov-14 11:00N 51°26' E 003°37'4 8.8
2017-Nov-14 10:31N 51°24' E 003°43'510.4
2017-Nov-14 10:00N 51°20' E 003°49'1 1.3
2017-Nov-14 09:30N 51°20' E 003°49'0 0.6
2017-Nov-14 09:01N 51°19' E 003°49'3 5.3
2017-Nov-14 08:31N 51°17' E 003°50'3 6.8
2017-Nov-14 08:00N 51°14' E 003°48'3 6.9
2017-Nov-14 07:31N 51°10' E 003°48'0 0.5
2017-Nov-14 07:00N 51°10' E 003°48'0 0.0
2017-Nov-14 06:30N 51°10' E 003°48'0 0.0
2017-Nov-14 06:00N 51°10' E 003°48'0 0.0
2017-Nov-14 05:30N 51°10' E 003°48'0 0.0
2017-Nov-14 05:00N 51°10' E 003°48'0 0.0
2017-Nov-14 04:30N 51°10' E 003°48'0 0.0
2017-Nov-14 04:00N 51°10' E 003°48'0 0.0
2017-Nov-14 03:30N 51°10' E 003°48'0 0.0
2017-Nov-14 03:00N 51°10' E 003°48'0 0.0
2017-Nov-14 02:30N 51°10' E 003°48'0 0.0
2017-Nov-14 02:00N 51°10' E 003°48'0 0.0
2017-Nov-14 01:30N 51°10' E 003°48'0 0.0
2017-Nov-14 01:00N 51°10' E 003°48'0 0.0
2017-Nov-14 00:30N 51°10' E 003°48'0 0.0
2017-Nov-14 00:00N 51°10' E 003°48'0 0.0
2017-Nov-13 23:30N 51°10' E 003°48'0 0.0
2017-Nov-13 23:00N 51°10' E 003°48'0 0.0
2017-Nov-13 22:30N 51°10' E 003°48'0 0.0
2017-Nov-13 22:00N 51°10' E 003°48'0 0.0
2017-Nov-13 01:59N 51°10' E 003°48'0 0.0
2017-Nov-13 01:29N 51°10' E 003°48'0 0.0
2017-Nov-13 00:59N 51°10' E 003°48'0 0.0
2017-Nov-13 00:28N 51°10' E 003°48'0 0.0
2017-Nov-12 23:58N 51°10' E 003°48'0 0.0
2017-Nov-12 23:29N 51°10' E 003°48'0 0.0
2017-Nov-12 22:59N 51°10' E 003°48'0 0.0
2017-Nov-12 22:29N 51°10' E 003°48'0 0.0
2017-Nov-12 21:59N 51°10' E 003°48'0 0.0
2017-Nov-12 21:28N 51°10' E 003°48'0 0.0
2017-Nov-12 20:59N 51°10' E 003°48'0 0.0
2017-Nov-12 20:29N 51°10' E 003°48'0 0.0
2017-Nov-12 19:59N 51°10' E 003°48'0 0.0
2017-Nov-12 19:29N 51°10' E 003°48'0 0.0
2017-Nov-12 18:58N 51°10' E 003°48'0 0.0
2017-Nov-12 18:28N 51°10' E 003°48'0 0.0
2017-Nov-12 17:59N 51°10' E 003°48'0 0.0
2017-Nov-12 17:29N 51°10' E 003°48'0 0.0
2017-Nov-12 16:59N 51°10' E 003°48'0 0.0
2017-Nov-12 16:29N 51°10' E 003°48'0 0.0
2017-Nov-12 15:58N 51°10' E 003°48'0 0.0
2017-Nov-12 15:28N 51°10' E 003°48'0 0.0
2017-Nov-12 14:59N 51°10' E 003°48'0 0.0
2017-Nov-12 14:29N 51°10' E 003°48'0 0.0
2017-Nov-12 13:59N 51°10' E 003°48'0 0.0
2017-Nov-12 13:28N 51°10' E 003°48'0 0.0
2017-Nov-12 12:59N 51°10' E 003°48'0 0.0
2017-Nov-12 12:28N 51°10' E 003°48'0 0.0
2017-Nov-12 12:01N 51°10' E 003°48'0 0.0
2017-Nov-12 11:29N 51°10' E 003°48'0 0.0
2017-Nov-12 10:59N 51°10' E 003°48'0 0.0
2017-Nov-12 10:29N 51°10' E 003°48'0 0.0
2017-Nov-12 09:59N 51°10' E 003°48'0 0.0
2017-Nov-12 09:29N 51°10' E 003°48'0 0.0
2017-Nov-12 08:59N 51°10' E 003°48'0 0.0
2017-Nov-12 08:28N 51°10' E 003°48'0 0.0
2017-Nov-12 07:58N 51°10' E 003°48'0 0.0
2017-Nov-12 07:28N 51°10' E 003°48'0 0.0
2017-Nov-12 06:58N 51°10' E 003°48'0 0.0
2017-Nov-12 06:28N 51°10' E 003°48'0 0.0
2017-Nov-12 05:58N 51°10' E 003°48'0 0.0
2017-Nov-12 05:28N 51°10' E 003°48'0 0.0
2017-Nov-12 04:58N 51°10' E 003°48'0 0.0
2017-Nov-12 04:28N 51°10' E 003°48'0 0.0
2017-Nov-12 03:58N 51°10' E 003°48'0 0.0
2017-Nov-12 03:28N 51°10' E 003°48'0 0.0
2017-Nov-12 02:58N 51°10' E 003°48'0 0.0
2017-Nov-12 02:28N 51°10' E 003°48'0 0.0
2017-Nov-12 01:58N 51°10' E 003°48'0 0.0
2017-Nov-12 01:28N 51°10' E 003°48'0 0.0
2017-Nov-12 00:58N 51°10' E 003°48'0 0.0
2017-Nov-12 00:25N 51°10' E 003°48'0 0.0
2017-Nov-11 23:59N 51°10' E 003°48'0 0.0
2017-Nov-11 23:28N 51°10' E 003°48'0 0.1
2017-Nov-11 23:01N 51°11' E 003°48'1 2.3
2017-Nov-11 22:30N 51°12' E 003°48'2 4.9
2017-Nov-11 22:01N 51°14' E 003°49'3 5.0
2017-Nov-11 21:31N 51°16' E 003°50'3 5.3
2017-Nov-11 21:01N 51°19' E 003°50'1 1.8
2017-Nov-11 20:30N 51°20' E 003°49'0 0.3
2017-Nov-11 20:00N 51°20' E 003°49'0 1.0
2017-Nov-11 19:31N 51°20' E 003°49'1 2.3
2017-Nov-11 19:00N 51°21' E 003°50'1 2.1
2017-Nov-11 18:31N 51°21' E 003°52'0 0.1
2017-Nov-11 17:56N 51°21' E 003°52'0 0.2
2017-Nov-11 17:29N 51°21' E 003°52'0 0.0
2017-Nov-11 16:59N 51°21' E 003°52'0 0.0
2017-Nov-11 16:26N 51°21' E 003°52'0 0.0
2017-Nov-11 15:59N 51°21' E 003°52'0 0.0
2017-Nov-11 15:29N 51°21' E 003°52'0 0.0
2017-Nov-11 14:59N 51°21' E 003°52'0 0.2
2017-Nov-11 14:29N 51°21' E 003°52'0 0.2
2017-Nov-11 13:56N 51°21' E 003°52'0 0.2
2017-Nov-11 13:29N 51°21' E 003°52'0 0.0
2017-Nov-11 12:56N 51°21' E 003°52'0 0.2
2017-Nov-11 12:26N 51°21' E 003°52'0 0.0
2017-Nov-11 11:59N 51°21' E 003°52'0 0.1
2017-Nov-11 11:29N 51°21' E 003°52'0 0.0
2017-Nov-11 10:59N 51°21' E 003°52'0 0.1
2017-Nov-11 10:29N 51°21' E 003°52'0 0.1
2017-Nov-11 09:59N 51°21' E 003°52'0 0.0
2017-Nov-11 09:29N 51°21' E 003°52'0 0.1
2017-Nov-11 08:59N 51°21' E 003°52'0 0.2
2017-Nov-11 08:29N 51°21' E 003°52'0 0.3
2017-Nov-11 07:59N 51°21' E 003°52'0 0.1
2017-Nov-11 07:29N 51°21' E 003°52'0 0.2
2017-Nov-11 06:59N 51°21' E 003°52'0 0.0
2017-Nov-11 06:30N 51°21' E 003°52'0 0.0
2017-Nov-11 06:00N 51°21' E 003°52'0 0.0
2017-Nov-11 05:30N 51°21' E 003°52'0 0.0
2017-Nov-11 04:59N 51°21' E 003°52'0 0.0
2017-Nov-11 04:30N 51°21' E 003°52'0 0.0
2017-Nov-11 04:00N 51°21' E 003°52'0 0.1
2017-Nov-11 03:30N 51°21' E 003°52'0 0.0
2017-Nov-11 03:00N 51°21' E 003°52'0 0.1
2017-Nov-11 02:30N 51°21' E 003°52'0 0.1
2017-Nov-11 02:00N 51°21' E 003°52'0 0.3
2017-Nov-11 01:30N 51°21' E 003°52'0 0.2
2017-Nov-11 00:59N 51°21' E 003°52'0 0.2
2017-Nov-11 00:30N 51°21' E 003°52'0 0.0
2017-Nov-11 00:00N 51°21' E 003°52'0 0.1
2017-Nov-10 23:30N 51°21' E 003°52'0 0.1
2017-Nov-10 23:00N 51°21' E 003°52'0 0.1
2017-Nov-10 22:30N 51°21' E 003°52'0 0.3
2017-Nov-10 22:00N 51°21' E 003°52'0 0.0
2017-Nov-10 21:30N 51°21' E 003°52'0 0.0
2017-Nov-10 21:00N 51°21' E 003°52'0 0.1
2017-Nov-10 20:30N 51°21' E 003°52'0 0.3
2017-Nov-10 20:00N 51°21' E 003°52'0 0.3
2017-Nov-10 19:30N 51°21' E 003°52'2 3.6
2017-Nov-10 19:00N 51°21' E 003°49'3 6.3
2017-Nov-10 18:30N 51°22' E 003°44'4 8.9
2017-Nov-10 18:00N 51°26' E 003°41'5 9.9
2017-Nov-10 17:30N 51°25' E 003°33'510.7
2017-Nov-10 17:00N 51°25' E 003°25'611.4
2017-Nov-10 16:30N 51°25' E 003°15'611.6
2017-Nov-10 16:00N 51°24' E 003°06'611.3
2017-Nov-10 15:30N 51°25' E 002°57'510.6
2017-Nov-10 15:00N 51°25' E 002°49'510.0
2017-Nov-10 14:30N 51°22' E 002°42'4 7.7
2017-Nov-10 14:00N 51°22' E 002°36'2 4.7
2017-Nov-10 13:30N 51°24' E 002°34'0 0.1
2017-Nov-10 12:59N 51°24' E 002°34'0 0.0
2017-Nov-10 11:41N 51°24' E 002°34'0 0.1
2017-Nov-10 11:23N 51°24' E 002°34'0 0.2
2017-Nov-10 10:59N 51°24' E 002°34'0 0.2
2017-Nov-10 09:41N 51°24' E 002°34'0 0.1
2017-Nov-10 09:14N 51°24' E 002°34'0 0.2
2017-Nov-10 08:59N 51°24' E 002°34'0 0.1
2017-Nov-10 08:26N 51°24' E 002°34'0 0.1
2017-Nov-10 07:59N 51°24' E 002°34'0 0.0
2017-Nov-10 07:11N 51°24' E 002°34'0 0.0
2017-Nov-10 06:53N 51°24' E 002°34'0 0.0
2017-Nov-10 06:26N 51°24' E 002°34'0 0.0
2017-Nov-10 05:53N 51°24' E 002°34'0 0.0
2017-Nov-10 05:14N 51°24' E 002°34'0 0.0
2017-Nov-10 04:47N 51°24' E 002°34'0 0.0
2017-Nov-10 04:29N 51°24' E 002°34'0 0.1
2017-Nov-10 03:56N 51°24' E 002°34'0 0.1
2017-Nov-10 03:29N 51°24' E 002°34'0 0.2
2017-Nov-10 02:59N 51°24' E 002°34'0 0.3
2017-Nov-10 02:29N 51°24' E 002°34'0 0.1
2017-Nov-10 01:56N 51°24' E 002°34'0 0.0
2017-Nov-10 01:23N 51°24' E 002°34'0 0.0
2017-Nov-10 00:59N 51°24' E 002°34'0 0.0
2017-Nov-10 00:23N 51°24' E 002°34'0 0.0
2017-Nov-09 23:59N 51°24' E 002°34'0 0.0
2017-Nov-09 23:26N 51°24' E 002°34'0 0.0
2017-Nov-09 22:59N 51°24' E 002°34'0 0.0
2017-Nov-09 22:29N 51°24' E 002°34'0 0.0
2017-Nov-09 21:59N 51°24' E 002°34'0 0.1
2017-Nov-09 21:29N 51°24' E 002°34'0 0.4
2017-Nov-09 20:56N 51°24' E 002°34'0 0.3
2017-Nov-09 20:29N 51°24' E 002°34'0 0.0
2017-Nov-09 19:59N 51°24' E 002°34'0 0.0
2017-Nov-09 19:29N 51°24' E 002°34'0 0.0
2017-Nov-09 18:59N 51°24' E 002°34'0 0.0
2017-Nov-09 18:29N 51°24' E 002°34'0 0.0
2017-Nov-09 17:50N 51°24' E 002°34'0 0.0
2017-Nov-09 17:29N 51°24' E 002°34'0 0.0
2017-Nov-09 16:59N 51°24' E 002°34'0 0.0
2017-Nov-09 16:29N 51°24' E 002°34'0 0.0
2017-Nov-09 15:59N 51°24' E 002°34'0 0.0
2017-Nov-09 15:14N 51°24' E 002°34'0 0.1
2017-Nov-09 14:59N 51°24' E 002°34'0 0.2
2017-Nov-09 13:59N 51°24' E 002°34'0 0.1
2017-Nov-09 13:05N 51°24' E 002°34'0 0.1
2017-Nov-09 12:59N 51°24' E 002°34'0 0.0
2017-Nov-09 12:23N 51°24' E 002°34'0 0.0
2017-Nov-09 11:59N 51°24' E 002°34'0 0.0
2017-Nov-09 11:29N 51°24' E 002°34'0 0.0
2017-Nov-09 10:59N 51°24' E 002°34'0 0.0
2017-Nov-09 10:23N 51°24' E 002°34'0 0.0
2017-Nov-09 09:59N 51°24' E 002°34'0 0.1
2017-Nov-09 09:26N 51°24' E 002°34'0 0.3
2017-Nov-09 08:56N 51°24' E 002°34'0 0.3
2017-Nov-09 08:26N 51°24' E 002°34'0 0.1
2017-Nov-09 07:59N 51°24' E 002°34'0 0.0
2017-Nov-09 07:26N 51°24' E 002°34'0 0.0
2017-Nov-09 06:56N 51°24' E 002°34'0 0.0
2017-Nov-09 06:26N 51°24' E 002°34'0 0.0
2017-Nov-09 05:59N 51°24' E 002°34'0 0.0
2017-Nov-09 05:29N 51°24' E 002°34'0 0.0
2017-Nov-09 04:59N 51°24' E 002°34'0 0.0
2017-Nov-09 04:29N 51°24' E 002°34'0 0.0
2017-Nov-09 03:59N 51°24' E 002°34'0 0.0
2017-Nov-09 03:29N 51°24' E 002°34'0 0.0
2017-Nov-09 02:59N 51°24' E 002°34'0 0.2
2017-Nov-09 02:26N 51°24' E 002°34'0 0.2
2017-Nov-09 01:59N 51°24' E 002°34'0 0.2
2017-Nov-09 01:08N 51°24' E 002°34'0 0.0
2017-Nov-09 00:44N 51°24' E 002°34'0 0.0
2017-Nov-09 00:29N 51°24' E 002°34'0 0.0
2017-Nov-08 23:59N 51°24' E 002°34'0 0.0
2017-Nov-08 23:23N 51°24' E 002°34'0 0.0
2017-Nov-08 22:59N 51°24' E 002°34'0 0.0
2017-Nov-08 20:50N 51°24' E 002°34'0 0.0
2017-Nov-08 19:38N 51°24' E 002°34'0 0.1
2017-Nov-08 19:29N 51°24' E 002°34'0 0.2
2017-Nov-08 18:59N 51°24' E 002°34'0 0.2
2017-Nov-08 18:29N 51°24' E 002°34'0 0.0
2017-Nov-08 17:56N 51°24' E 002°34'0 0.0
2017-Nov-08 17:23N 51°24' E 002°34'0 0.0
2017-Nov-08 16:59N 51°24' E 002°34'0 0.0
2017-Nov-08 16:29N 51°24' E 002°34'0 0.1
2017-Nov-08 15:59N 51°24' E 002°34'0 0.0
2017-Nov-08 15:29N 51°24' E 002°34'0 0.0
2017-Nov-08 14:59N 51°24' E 002°34'0 0.1
2017-Nov-08 14:02N 51°24' E 002°34'0 0.2
2017-Nov-08 13:59N 51°24' E 002°34'0 0.2
2017-Nov-08 13:11N 51°24' E 002°34'0 0.1
2017-Nov-08 12:41N 51°24' E 002°34'0 0.1
2017-Nov-08 12:29N 51°24' E 002°34'0 0.1
2017-Nov-08 11:59N 51°24' E 002°34'0 0.0
2017-Nov-08 11:26N 51°24' E 002°34'0 0.0
2017-Nov-08 09:17N 51°24' E 002°34'0 0.1
2017-Nov-08 07:02N 51°24' E 002°34'0 0.2
2017-Nov-08 06:59N 51°24' E 002°34'0 0.1
2017-Nov-08 06:29N 51°24' E 002°34'0 0.1
2017-Nov-08 05:59N 51°24' E 002°34'0 0.0
2017-Nov-08 05:29N 51°24' E 002°34'0 0.0
2017-Nov-08 04:59N 51°24' E 002°34'0 0.0
2017-Nov-08 04:29N 51°24' E 002°34'0 0.0
2017-Nov-08 03:56N 51°24' E 002°34'0 0.0
2017-Nov-08 03:29N 51°24' E 002°34'0 0.0
2017-Nov-08 02:47N 51°24' E 002°34'0 0.0
2017-Nov-08 02:02N 51°24' E 002°34'0 0.0
2017-Nov-08 01:59N 51°24' E 002°34'0 0.0
2017-Nov-08 01:26N 51°24' E 002°34'0 0.3
2017-Nov-08 00:59N 51°24' E 002°34'0 0.1
2017-Nov-07 23:26N 51°24' E 002°34'0 0.0
2017-Nov-07 22:50N 51°24' E 002°34'0 0.0
2017-Nov-07 22:23N 51°24' E 002°34'0 0.0
2017-Nov-07 21:56N 51°24' E 002°34'0 0.0
2017-Nov-07 21:26N 51°24' E 002°34'0 0.0
2017-Nov-07 20:38N 51°24' E 002°34'0 0.1
2017-Nov-07 20:20N 51°24' E 002°34'0 0.2
2017-Nov-07 19:32N 51°24' E 002°34'0 0.2
2017-Nov-07 19:29N 51°24' E 002°34'0 0.2
2017-Nov-07 18:59N 51°24' E 002°34'0 0.1
2017-Nov-07 18:29N 51°24' E 002°34'0 0.1
2017-Nov-07 17:59N 51°24' E 002°34'0 0.1
2017-Nov-07 17:26N 51°24' E 002°34'0 0.1
2017-Nov-07 16:59N 51°24' E 002°34'  

Dump ship's entire track history